Stateville, Illinois
Current Conditions -  °F | °C
As of 6:55 PM on Saturday 22 Nov 2014 (Local Time) from KLOT Reporting Station
Overcast Overcast  
Wind Chill: 51°   Ceiling: 5000
Heat Index: 51°   Visibility: 10mi
Dew Point: 44°   Wind: 21mph
Humidity: 78%   Direction: 210°SSW
Pressure: 29.86"   Gusts: 24mph
Location:  41.552°N, 88.1116°W
Report Text: KLOT 230055Z AUTO 21018G21KT 10SM OVC050 11/07 A2986 RMK AO2 T01050068
Loading
Personal Weather Stations






























Interactive Weather Map New forecast layout! Learn more

10-Day Weather Forecast

Advertisements
Track Severe Weather on mobile